Time;durP1;ratioP1;P1;durP2;ratioP2;P2;SDS_P1;SDS_P2;PMS_P1;PMS_P2;Temp;Humidity;BMP_temperature;BMP_pressure;BME280_temperature;BME280_humidity;BME280_pressure;Samples;Min_cycle;Max_cycle;Signal;HPM_P1;HPM_P2
2023/06/02 00:01:02;;;;;;;18.90;2.95;;;10.80;99.90;;;;;;5079393;28;20058;-73
2023/06/02 00:03:33;;;;;;;13.73;1.80;;;10.70;99.90;;;;;;5096208;28;20083;-71
2023/06/02 00:06:03;;;;;;;15.88;1.73;;;10.80;99.90;;;;;;5113834;28;20126;-71
2023/06/02 00:08:32;;;;;;;20.13;2.38;;;10.80;99.90;;;;;;5096090;28;20400;-69
2023/06/02 00:10:59;;;;;;;14.73;2.75;;;10.70;99.90;;;;;;5114002;28;20040;-71
2023/06/02 00:13:25;;;;;;;13.15;1.80;;;10.70;99.90;;;;;;5114150;28;20459;-71
2023/06/02 00:15:51;;;;;;;13.67;2.37;;;10.70;99.90;;;;;;5113756;28;20151;-71
2023/06/02 00:18:17;;;;;;;13.50;2.28;;;10.70;99.90;;;;;;5095892;28;20160;-72
2023/06/02 00:20:44;;;;;;;16.75;2.45;;;10.70;99.90;;;;;;5079219;28;20047;-72
2023/06/02 00:23:09;;;;;;;16.35;2.25;;;10.70;99.90;;;;;;5113941;28;20489;-70
2023/06/02 00:25:41;;;;;;;13.45;1.80;;;10.80;99.90;;;;;;5114346;28;20055;-71
2023/06/02 00:28:07;;;;;;;16.73;1.98;;;10.70;99.90;;;;;;5095622;28;20043;-71
2023/06/02 00:30:36;;;;;;;12.18;1.88;;;10.70;99.90;;;;;;5113823;28;20383;-71
2023/06/02 00:33:02;;;;;;;15.63;2.13;;;10.70;99.90;;;;;;5113293;28;20044;-71
2023/06/02 00:35:28;;;;;;;21.70;2.38;;;10.70;99.90;;;;;;5095815;28;20047;-70
2023/06/02 00:37:54;;;;;;;21.23;2.33;;;10.70;99.90;;;;;;5095469;28;20263;-71
2023/06/02 00:40:26;;;;;;;18.88;2.00;;;10.70;99.90;;;;;;5113674;28;20100;-71
2023/06/02 00:42:51;;;;;;;15.57;2.13;;;10.60;99.90;;;;;;5095539;28;20134;-71
2023/06/02 00:45:17;;;;;;;12.27;1.52;;;10.60;99.90;;;;;;5095660;28;20052;-72
2023/06/02 00:47:44;;;;;;;8.98;1.30;;;10.70;99.90;;;;;;5079627;28;20491;-72
2023/06/02 00:50:10;;;;;;;13.88;1.85;;;10.70;99.90;;;;;;5113622;28;20047;-71
2023/06/02 00:52:38;;;;;;;15.82;1.60;;;10.60;99.90;;;;;;5113622;28;20101;-72
2023/06/02 00:55:05;;;;;;;14.60;1.88;;;10.60;99.90;;;;;;5114042;28;20400;-74
2023/06/02 00:57:33;;;;;;;19.05;2.65;;;10.60;99.90;;;;;;5113576;28;20051;-71
2023/06/02 01:00:00;;;;;;;14.52;2.28;;;10.60;99.90;;;;;;5095299;28;20062;-71
2023/06/02 01:02:26;;;;;;;10.13;1.10;;;10.60;99.90;;;;;;5078612;28;20054;-72
2023/06/02 01:04:57;;;;;;;14.15;1.40;;;10.60;99.90;;;;;;5113543;28;20048;-71
2023/06/02 01:07:25;;;;;;;18.95;1.95;;;10.60;99.90;;;;;;5113513;28;20048;-71
2023/06/02 01:10:01;;;;;;;10.82;1.40;;;10.60;99.90;;;;;;5113477;28;20047;-70
2023/06/02 01:12:27;;;;;;;15.25;2.58;;;10.70;99.90;;;;;;5113937;28;20055;-69
2023/06/02 01:14:53;;;;;;;13.40;1.60;;;10.60;99.90;;;;;;5113642;28;20075;-72
2023/06/02 01:17:19;;;;;;;15.93;2.13;;;10.60;99.90;;;;;;5094970;28;20090;-71
2023/06/02 01:19:49;;;;;;;16.50;2.50;;;10.60;99.90;;;;;;5078627;28;20056;-73
2023/06/02 01:22:19;;;;;;;20.08;2.20;;;10.60;99.90;;;;;;5096026;28;20043;-71
2023/06/02 01:24:48;;;;;;;15.50;2.08;;;10.60;99.90;;;;;;5095433;28;20050;-73
2023/06/02 01:27:15;;;;;;;18.50;2.67;;;10.50;99.90;;;;;;5095385;28;20047;-71
2023/06/02 01:29:42;;;;;;;23.58;2.25;;;10.60;99.90;;;;;;5078271;28;20205;-72
2023/06/02 01:32:21;;;;;;;10.63;1.50;;;10.50;99.90;;;;;;5045850;28;20385;-72
2023/06/02 01:34:59;;;;;;;19.17;1.60;;;10.50;99.90;;;;;;5114097;28;20139;-71
2023/06/02 01:37:27;;;;;;;25.52;2.63;;;10.50;99.90;;;;;;5078742;28;20060;-70
2023/06/02 01:39:54;;;;;;;14.23;2.60;;;10.50;99.90;;;;;;5113109;28;20044;-71
2023/06/02 01:42:21;;;;;;;14.40;1.50;;;10.50;99.90;;;;;;5115559;28;20082;-72
2023/06/02 01:44:48;;;;;;;19.15;1.60;;;10.50;99.90;;;;;;5116662;28;20112;-73
2023/06/02 01:47:14;;;;;;;14.32;1.60;;;10.50;99.90;;;;;;5098551;28;20119;-71
2023/06/02 01:49:40;;;;;;;17.85;1.85;;;10.50;99.90;;;;;;5117310;28;20063;-71
2023/06/02 01:52:06;;;;;;;16.40;2.03;;;10.50;99.90;;;;;;5116699;28;20397;-70
2023/06/02 01:54:31;;;;;;;21.60;2.00;;;10.50;99.90;;;;;;5116637;28;20080;-71
2023/06/02 01:56:57;;;;;;;23.83;2.17;;;10.50;99.90;;;;;;5081646;28;20114;-73
2023/06/02 01:59:23;;;;;;;14.85;1.60;;;10.50;99.90;;;;;;5116530;28;20090;-70
2023/06/02 02:01:49;;;;;;;20.45;2.17;;;10.40;99.90;;;;;;5116376;28;20082;-87
2023/06/02 02:04:14;;;;;;;16.20;1.60;;;10.40;99.90;;;;;;5098297;28;20090;-71
2023/06/02 02:06:42;;;;;;;14.32;1.52;;;10.40;99.90;;;;;;5116377;28;20044;-70
2023/06/02 02:09:07;;;;;;;16.27;1.67;;;10.40;99.90;;;;;;5081751;28;20047;-71
2023/06/02 02:11:34;;;;;;;15.82;1.88;;;10.40;99.90;;;;;;5116215;28;20044;-71
2023/06/02 02:14:06;;;;;;;17.40;2.13;;;10.40;99.90;;;;;;5116825;28;20136;-71
2023/06/02 02:16:32;;;;;;;10.73;1.20;;;10.40;99.90;;;;;;5117055;28;20285;-72
2023/06/02 02:18:58;;;;;;;19.23;2.38;;;10.40;99.90;;;;;;5098748;28;20048;-72
2023/06/02 02:21:28;;;;;;;13.23;1.70;;;10.40;99.90;;;;;;5098174;28;20128;-71
2023/06/02 02:23:54;;;;;;;16.83;1.65;;;10.40;99.90;;;;;;5116003;28;20089;-71
2023/06/02 02:26:20;;;;;;;18.40;2.35;;;10.40;99.90;;;;;;5116133;28;20497;-71
2023/06/02 02:28:47;;;;;;;17.52;2.10;;;10.40;99.90;;;;;;5116222;28;20058;-70
2023/06/02 02:31:13;;;;;;;16.63;1.67;;;10.40;99.90;;;;;;5097899;28;20054;-72
2023/06/02 02:33:39;;;;;;;16.05;1.77;;;10.40;99.90;;;;;;5115926;28;20047;-70
2023/06/02 02:36:06;;;;;;;17.75;1.75;;;10.40;99.90;;;;;;5115920;28;20040;-71
2023/06/02 02:38:32;;;;;;;18.63;2.53;;;10.30;99.90;;;;;;5097722;28;20051;-71
2023/06/02 02:40:57;;;;;;;20.30;2.13;;;10.40;99.90;;;;;;5116197;28;20048;-71
2023/06/02 02:43:23;;;;;;;13.65;1.67;;;10.40;99.90;;;;;;5115704;28;20071;-71
2023/06/02 02:45:49;;;;;;;21.17;2.15;;;10.40;99.90;;;;;;5115709;28;20043;-71
2023/06/02 02:48:15;;;;;;;17.73;3.25;;;10.40;99.90;;;;;;5097534;28;20468;-71
2023/06/02 02:50:40;;;;;;;12.00;1.70;;;10.40;99.90;;;;;;5115443;28;20086;-71
2023/06/02 02:53:06;;;;;;;20.17;2.80;;;10.30;99.90;;;;;;5080188;28;20091;-71
2023/06/02 02:55:33;;;;;;;16.67;1.80;;;10.40;99.90;;;;;;5115370;28;20066;-71
2023/06/02 02:58:00;;;;;;;20.95;1.88;;;10.30;99.90;;;;;;5115395;28;20071;-71
2023/06/02 03:00:27;;;;;;;17.55;1.77;;;10.30;99.90;;;;;;5115446;28;20051;-72
2023/06/02 03:02:54;;;;;;;16.65;1.60;;;10.30;99.90;;;;;;5097653;28;20044;-71
2023/06/02 03:05:20;;;;;;;17.23;2.47;;;10.30;99.90;;;;;;5097282;28;20089;-72
2023/06/02 03:07:46;;;;;;;21.38;2.25;;;10.30;99.90;;;;;;5097361;28;20392;-71
2023/06/02 03:10:11;;;;;;;17.80;2.30;;;10.30;99.90;;;;;;5115815;28;20043;-71
2023/06/02 03:12:37;;;;;;;14.13;1.90;;;10.30;99.90;;;;;;5096782;28;20039;-71
2023/06/02 03:15:03;;;;;;;20.40;2.60;;;10.20;99.90;;;;;;5096746;28;20044;-71
2023/06/02 03:17:29;;;;;;;17.87;2.03;;;10.30;99.90;;;;;;5096882;28;20051;-71
2023/06/02 03:19:55;;;;;;;19.65;1.90;;;10.20;99.90;;;;;;5096628;28;20300;-71
2023/06/02 03:22:22;;;;;;;16.45;2.30;;;10.20;99.90;;;;;;5115021;28;20044;-73
2023/06/02 03:24:48;;;;;;;21.17;1.90;;;10.20;99.90;;;;;;5115404;28;20419;-71
2023/06/02 03:27:15;;;;;;;16.17;2.30;;;10.20;99.90;;;;;;5097008;28;20118;-69
2023/06/02 03:29:42;;;;;;;25.05;2.25;;;10.20;99.90;;;;;;5114769;28;20063;-71
2023/06/02 03:32:12;;;;;;;13.88;2.08;;;10.30;99.90;;;;;;5114331;28;20481;-72
2023/06/02 03:34:40;;;;;;;23.08;2.35;;;10.30;99.90;;;;;;5096781;28;20087;-70
2023/06/02 03:37:07;;;;;;;15.75;1.90;;;10.30;99.90;;;;;;5115037;28;20043;-71
2023/06/02 03:39:32;;;;;;;18.48;1.80;;;10.20;99.90;;;;;;5096307;28;20545;-70
2023/06/02 03:41:58;;;;;;;22.27;1.92;;;10.30;99.90;;;;;;5096224;28;20044;-71
2023/06/02 03:44:24;;;;;;;14.93;1.80;;;10.30;99.90;;;;;;5115022;28;20043;-70
2023/06/02 03:46:50;;;;;;;18.73;2.00;;;10.30;99.90;;;;;;5114471;28;20051;-70
2023/06/02 03:49:16;;;;;;;20.42;2.40;;;10.30;99.90;;;;;;5114587;28;20541;-72
2023/06/02 03:51:43;;;;;;;17.10;2.05;;;10.30;99.90;;;;;;5080139;28;20088;-71
2023/06/02 03:54:09;;;;;;;21.42;2.10;;;10.30;99.90;;;;;;5114323;28;20094;-71
2023/06/02 03:56:34;;;;;;;17.92;1.95;;;10.30;99.90;;;;;;5096161;28;20114;-71
2023/06/02 03:59:00;;;;;;;15.38;1.92;;;10.30;99.90;;;;;;5096422;28;20150;-70
2023/06/02 04:01:27;;;;;;;21.83;1.88;;;10.30;99.90;;;;;;5096210;28;20497;-71
2023/06/02 04:03:53;;;;;;;17.20;1.90;;;10.40;99.90;;;;;;5114753;28;20043;-71
2023/06/02 04:06:19;;;;;;;16.17;1.77;;;10.40;99.90;;;;;;5114061;28;20043;-72
2023/06/02 04:08:48;;;;;;;22.02;2.33;;;10.40;99.90;;;;;;5114629;28;20081;-71
2023/06/02 04:11:14;;;;;;;17.42;2.45;;;10.40;99.90;;;;;;5095584;28;20039;-72
2023/06/02 04:13:40;;;;;;;30.50;3.35;;;10.40;99.90;;;;;;5096517;28;20185;-71
2023/06/02 04:16:07;;;;;;;14.68;2.00;;;10.50;99.90;;;;;;5113667;28;20043;-71
2023/06/02 04:18:36;;;;;;;16.88;2.42;;;10.40;99.90;;;;;;5096931;28;20059;-72
2023/06/02 04:21:02;;;;;;;18.58;1.92;;;10.50;99.90;;;;;;5114394;28;20184;-72
2023/06/02 04:23:28;;;;;;;21.27;2.35;;;10.50;99.90;;;;;;5095865;28;20134;-70
2023/06/02 04:25:54;;;;;;;24.55;3.72;;;10.50;99.90;;;;;;5095784;28;20043;-71
2023/06/02 04:28:20;;;;;;;20.63;2.33;;;10.50;99.90;;;;;;5113835;28;20051;-70
2023/06/02 04:30:52;;;;;;;20.38;2.35;;;10.50;99.90;;;;;;5113788;28;20193;-71
2023/06/02 04:33:18;;;;;;;21.75;2.60;;;10.50;99.90;;;;;;5095770;28;20127;-71
2023/06/02 04:35:44;;;;;;;18.80;2.00;;;10.50;99.90;;;;;;5113714;28;20058;-73
2023/06/02 04:38:11;;;;;;;16.75;2.72;;;10.50;99.90;;;;;;5113734;28;20043;-72
2023/06/02 04:40:38;;;;;;;23.50;2.80;;;10.60;99.90;;;;;;5095812;28;20086;-71
2023/06/02 04:43:04;;;;;;;;;;;10.60;99.90;;;;;;5113849;28;20543;-70
2023/06/02 04:45:30;;;;;;;17.37;1.93;;;10.70;99.90;;;;;;5095699;28;19963;-70
2023/06/02 04:47:56;;;;;;;23.35;2.90;;;10.70;99.90;;;;;;5113646;28;20097;-71
2023/06/02 04:50:22;;;;;;;20.05;1.90;;;10.70;99.90;;;;;;5113244;28;20053;-72
2023/06/02 04:52:48;;;;;;;26.13;2.45;;;10.70;99.90;;;;;;5113621;28;20039;-70
2023/06/02 04:55:14;;;;;;;17.80;2.03;;;10.80;99.90;;;;;;5113816;28;20115;-73
2023/06/02 04:57:40;;;;;;;18.65;3.00;;;10.80;99.90;;;;;;5078774;28;20101;-71
2023/06/02 05:00:07;;;;;;;19.83;2.08;;;10.80;99.90;;;;;;5095444;28;20044;-70
2023/06/02 05:02:34;;;;;;;14.57;1.75;;;10.90;99.90;;;;;;5113471;28;20043;-70
2023/06/02 05:05:02;;;;;;;17.17;1.98;;;10.90;99.90;;;;;;5095553;28;20051;-71
2023/06/02 05:07:28;;;;;;;18.33;2.20;;;11.00;99.90;;;;;;5095783;28;20044;-70
2023/06/02 05:09:54;;;;;;;14.95;2.38;;;11.00;99.90;;;;;;5095609;28;20044;-70
2023/06/02 05:12:20;;;;;;;18.63;3.25;;;11.00;99.90;;;;;;5113329;28;20469;-70
2023/06/02 05:14:45;;;;;;;18.65;3.35;;;11.00;99.90;;;;;;5095988;28;20040;-70
2023/06/02 05:17:11;;;;;;;16.27;2.08;;;11.00;99.90;;;;;;5115591;28;20063;-71
2023/06/02 05:19:41;;;;;;;21.20;2.42;;;11.10;99.90;;;;;;5117009;28;20501;-71
2023/06/02 05:22:07;;;;;;;20.65;2.35;;;11.20;99.90;;;;;;5099181;28;20039;-71
2023/06/02 05:24:32;;;;;;;18.83;2.67;;;11.20;99.90;;;;;;5082280;28;20438;-71
2023/06/02 05:26:58;;;;;;;16.23;2.33;;;11.20;99.90;;;;;;5117140;28;20043;-70
2023/06/02 05:29:24;;;;;;;25.50;2.60;;;11.30;99.90;;;;;;5117368;28;20040;-71
2023/06/02 05:31:50;;;;;;;17.65;2.17;;;11.40;99.90;;;;;;5117065;28;20381;-72
2023/06/02 05:34:18;;;;;;;17.85;2.60;;;11.40;99.90;;;;;;5082324;28;20052;-71
2023/06/02 05:36:44;;;;;;;19.60;2.65;;;11.40;99.90;;;;;;5117112;28;20047;-70
2023/06/02 05:39:10;;;;;;;22.55;2.50;;;11.50;99.90;;;;;;5098659;28;20050;-72
2023/06/02 05:41:36;;;;;;;20.85;2.50;;;11.50;99.90;;;;;;5098815;28;20491;-70
2023/06/02 05:44:01;;;;;;;16.90;2.65;;;11.70;99.90;;;;;;5116955;28;20134;-71
2023/06/02 05:46:27;;;;;;;24.67;2.63;;;11.70;99.90;;;;;;5116911;28;20071;-71
2023/06/02 05:48:53;;;;;;;19.13;2.30;;;11.60;99.90;;;;;;5081869;28;20130;-72
2023/06/02 05:51:19;;;;;;;22.40;2.50;;;11.80;99.90;;;;;;5099067;28;20032;-85
2023/06/02 05:53:49;;;;;;;22.10;2.80;;;11.80;99.90;;;;;;5081860;28;20482;-70
2023/06/02 05:56:15;;;;;;;22.77;2.83;;;11.60;99.90;;;;;;5083169;28;20126;-71
2023/06/02 05:58:41;;;;;;;23.60;2.75;;;11.70;99.90;;;;;;5098254;28;20044;-70
2023/06/02 06:01:09;;;;;;;15.57;2.10;;;11.70;99.90;;;;;;5098512;28;20058;-71
2023/06/02 06:03:35;;;;;;;;;;;11.70;99.90;;;;;;5098240;28;20055;-71
2023/06/02 06:06:01;;;;;;;22.02;3.20;;;11.90;99.90;;;;;;5082268;28;20473;-71
2023/06/02 06:08:27;;;;;;;21.77;3.00;;;12.00;99.90;;;;;;5098329;28;20051;-71
2023/06/02 06:10:53;;;;;;;22.17;2.75;;;12.00;99.90;;;;;;5117366;28;20040;-70
2023/06/02 06:13:18;;;;;;;17.58;2.95;;;12.00;99.90;;;;;;5116297;28;20043;-71
2023/06/02 06:15:47;;;;;;;25.85;2.50;;;12.00;99.90;;;;;;5097925;28;20043;-70
2023/06/02 06:18:13;;;;;;;23.45;3.17;;;12.10;99.90;;;;;;5116236;28;20059;-71
2023/06/02 06:20:42;;;;;;;18.80;1.90;;;12.10;99.90;;;;;;5097815;28;20047;-71
2023/06/02 06:23:07;;;;;;;19.25;3.10;;;12.10;99.90;;;;;;5097756;28;20040;-71
2023/06/02 06:25:33;;;;;;;22.75;2.67;;;12.00;99.90;;;;;;5081832;28;20051;-71
2023/06/02 06:27:59;;;;;;;26.48;3.28;;;12.20;99.90;;;;;;5115727;28;20365;-73
2023/06/02 06:30:25;;;;;;;19.20;2.75;;;12.30;99.90;;;;;;5116082;28;20039;-71
2023/06/02 06:32:50;;;;;;;18.23;2.60;;;12.20;99.90;;;;;;5097670;28;20079;-70
2023/06/02 06:35:16;;;;;;;18.40;2.42;;;12.30;99.90;;;;;;5115870;28;20043;-70
2023/06/02 06:37:42;;;;;;;20.85;2.75;;;12.30;99.90;;;;;;5098059;28;20469;-70
2023/06/02 06:40:09;;;;;;;21.88;2.78;;;12.30;99.90;;;;;;5115909;28;20367;-72
2023/06/02 06:42:34;;;;;;;22.77;3.22;;;12.50;99.90;;;;;;5097452;28;20606;-71
2023/06/02 06:45:00;;;;;;;19.02;3.42;;;12.40;99.90;;;;;;5098563;28;20127;-71
2023/06/02 06:47:26;;;;;;;23.30;2.92;;;12.30;99.90;;;;;;5115606;28;20400;-87
2023/06/02 06:49:52;;;;;;;19.55;3.47;;;12.40;99.90;;;;;;5097309;28;20035;-73
2023/06/02 06:52:18;;;;;;;23.88;3.03;;;12.40;99.90;;;;;;5097312;28;20039;-70
2023/06/02 06:54:44;;;;;;;17.98;3.08;;;12.40;99.90;;;;;;5115211;28;20047;-72
2023/06/02 06:57:10;;;;;;;17.90;3.00;;;12.60;99.90;;;;;;5097453;28;20054;-72
2023/06/02 06:59:39;;;;;;;24.35;3.63;;;12.70;99.90;;;;;;5115685;28;20514;-71
2023/06/02 07:02:05;;;;;;;26.50;3.60;;;12.50;99.90;;;;;;5097095;28;20036;-71
2023/06/02 07:04:31;;;;;;;21.85;3.30;;;12.70;99.90;;;;;;5115880;28;20051;-71
2023/06/02 07:06:57;;;;;;;24.92;3.22;;;12.50;99.90;;;;;;5081088;28;20100;-70
2023/06/02 07:09:25;;;;;;;27.15;3.60;;;12.60;99.90;;;;;;5096980;28;20043;-71
2023/06/02 07:11:50;;;;;;;21.17;2.92;;;12.70;99.90;;;;;;5080196;28;20075;-72
2023/06/02 07:14:17;;;;;;;26.92;3.58;;;12.80;99.90;;;;;;5097555;28;20421;-70
2023/06/02 07:16:53;;;;;;;24.65;3.88;;;12.90;99.90;;;;;;5114892;28;20061;-73
2023/06/02 07:19:23;;;;;;;28.33;3.92;;;12.80;99.90;;;;;;5115628;28;20100;-71
2023/06/02 07:21:50;;;;;;;18.80;3.22;;;12.70;99.90;;;;;;5096671;28;20043;-72
2023/06/02 07:24:16;;;;;;;25.48;3.38;;;12.80;99.90;;;;;;5096614;28;20051;-75
2023/06/02 07:26:43;;;;;;;26.38;3.40;;;12.90;99.90;;;;;;5097307;28;20062;-71
2023/06/02 07:29:09;;;;;;;27.15;4.10;;;13.10;99.90;;;;;;5114775;28;20048;-71
2023/06/02 07:31:34;;;;;;;25.73;3.85;;;13.20;99.90;;;;;;5114686;28;20047;-72
2023/06/02 07:34:00;;;;;;;29.08;3.88;;;13.40;99.90;;;;;;5096795;28;20066;-71
2023/06/02 07:36:26;;;;;;;17.95;3.00;;;13.50;99.90;;;;;;5114702;28;20043;-72
2023/06/02 07:38:52;;;;;;;32.17;4.32;;;13.60;99.90;;;;;;5095823;28;20133;-72
2023/06/02 07:41:18;;;;;;;25.52;4.00;;;13.50;99.90;;;;;;5114494;28;20054;-71
2023/06/02 07:43:44;;;;;;;26.85;4.00;;;13.50;99.90;;;;;;5114169;28;20493;-72
2023/06/02 07:46:10;;;;;;;23.38;3.75;;;13.60;99.90;;;;;;5062601;28;20051;-70
2023/06/02 07:48:35;;;;;;;28.52;4.00;;;13.60;99.90;;;;;;5096071;28;20047;-71
2023/06/02 07:51:02;;;;;;;28.25;3.85;;;13.70;99.90;;;;;;5114259;28;20476;-72
2023/06/02 07:53:29;;;;;;;23.05;4.40;;;13.70;99.90;;;;;;5115088;28;20127;-72
2023/06/02 07:55:55;;;;;;;;;;;13.70;99.90;;;;;;5096421;28;20065;-70
2023/06/02 07:58:21;;;;;;;25.77;4.53;;;13.70;99.90;;;;;;5115286;28;19923;-72
2023/06/02 08:00:47;;;;;;;26.52;3.95;;;13.60;99.90;;;;;;5095917;28;20052;-71
2023/06/02 08:03:13;;;;;;;27.77;5.38;;;13.60;99.90;;;;;;5095945;28;20485;-70
2023/06/02 08:05:39;;;;;;;26.67;4.18;;;13.70;99.90;;;;;;5114123;28;20050;-71
2023/06/02 08:08:05;;;;;;;28.92;4.50;;;13.80;99.90;;;;;;5095946;28;20051;-70
2023/06/02 08:10:30;;;;;;;26.30;4.25;;;14.00;99.90;;;;;;5114469;28;20119;-71
2023/06/02 08:12:57;;;;;;;26.77;3.70;;;13.90;99.90;;;;;;5096188;28;20039;-71
2023/06/02 08:15:23;;;;;;;29.45;4.55;;;14.10;99.90;;;;;;5115077;28;20462;-72
2023/06/02 08:17:49;;;;;;;30.42;4.03;;;14.10;99.90;;;;;;5058821;28;20092;-72
2023/06/02 08:20:16;;;;;;;27.05;4.38;;;14.10;99.90;;;;;;5059196;28;20094;-71
2023/06/02 08:22:44;;;;;;;19.88;4.07;;;14.30;99.90;;;;;;5092549;28;20464;-70
2023/06/02 08:25:12;;;;;;;28.23;4.57;;;14.50;99.90;;;;;;5093615;28;20059;-72
2023/06/02 08:27:38;;;;;;;26.65;4.82;;;14.60;99.90;;;;;;5093209;28;20036;-72
2023/06/02 08:30:05;;;;;;;25.90;4.82;;;14.20;99.90;;;;;;5092515;28;20059;-70
2023/06/02 08:32:31;;;;;;;26.70;4.78;;;14.30;99.90;;;;;;5092233;28;20052;-71
2023/06/02 08:35:01;;;;;;;27.98;4.82;;;14.40;99.90;;;;;;5093430;28;20499;-71
2023/06/02 08:37:27;;;;;;;26.23;4.95;;;14.40;99.90;;;;;;5093479;28;20051;-71
2023/06/02 08:39:53;;;;;;;36.53;4.93;;;14.70;99.90;;;;;;5092243;28;20044;-70
2023/06/02 08:42:19;;;;;;;27.20;4.97;;;14.90;99.90;;;;;;5075341;28;20154;-70
2023/06/02 08:44:45;;;;;;;37.13;5.25;;;14.80;99.90;;;;;;5075583;28;20044;-70
2023/06/02 08:47:12;;;;;;;31.40;6.10;;;14.90;99.90;;;;;;5093311;28;20071;-70
2023/06/02 08:49:43;;;;;;;34.35;5.82;;;14.60;99.90;;;;;;5075126;28;20048;-71
2023/06/02 08:52:16;;;;;;;24.17;4.97;;;15.00;99.90;;;;;;5097295;28;20439;-70
2023/06/02 08:54:42;;;;;;;24.20;5.25;;;15.40;99.90;;;;;;5097552;28;20044;-70
2023/06/02 08:57:12;;;;;;;28.17;5.03;;;15.60;99.90;;;;;;5096127;28;20048;-70
2023/06/02 08:59:40;;;;;;;27.60;5.22;;;16.00;99.90;;;;;;5079799;28;20128;-71
2023/06/02 09:02:06;;;;;;;28.13;4.95;;;15.50;99.90;;;;;;5097247;28;20059;-70
2023/06/02 09:04:33;;;;;;;28.90;4.90;;;15.40;99.90;;;;;;5062425;28;20052;-70
2023/06/02 09:07:15;;;;;;;26.65;4.72;;;15.70;99.90;;;;;;5079219;28;20048;-70
2023/06/02 09:09:42;;;;;;;25.25;4.53;;;16.00;99.90;;;;;;5097855;28;20480;-71
2023/06/02 09:12:08;;;;;;;24.15;4.88;;;16.00;99.90;;;;;;5096217;28;20044;-72
2023/06/02 09:14:37;;;;;;;22.95;4.72;;;16.10;99.90;;;;;;5095993;28;20068;-71
2023/06/02 09:17:04;;;;;;;21.98;4.65;;;16.40;99.90;;;;;;5062369;28;20509;-69
2023/06/02 09:19:49;;;;;;;23.10;4.88;;;16.70;99.90;;;;;;5095699;28;20051;-70
2023/06/02 09:22:15;;;;;;;23.67;5.43;;;16.90;99.90;;;;;;5079573;28;20044;-70
2023/06/02 09:24:41;;;;;;;21.37;3.60;;;17.20;99.90;;;;;;5096547;28;20044;-71
2023/06/02 09:27:15;;;;;;;24.33;4.05;;;17.30;99.90;;;;;;5095694;28;20158;-70
2023/06/02 09:29:42;;;;;;;19.27;4.03;;;17.50;99.90;;;;;;5096775;28;20079;-70
2023/06/02 09:32:10;;;;;;;;;;;17.60;99.90;;;;;;5097029;28;20093;-71
2023/06/02 09:34:37;;;;;;;20.85;4.80;;;17.20;99.90;;;;;;5095712;28;19920;-71
2023/06/02 09:37:10;;;;;;;;;;;17.00;99.90;;;;;;5095752;28;20079;-69
2023/06/02 09:39:45;;;;;;;27.83;3.97;;;17.10;99.90;;;;;;5095417;28;19920;-69
2023/06/02 09:42:13;;;;;;;19.38;4.13;;;17.30;99.90;;;;;;5097154;28;20116;-71
2023/06/02 09:44:40;;;;;;;22.27;4.10;;;17.00;99.90;;;;;;5078849;28;20261;-71
2023/06/02 09:47:22;;;;;;;;;;;16.90;99.90;;;;;;5096770;28;20052;-71
2023/06/02 09:49:48;;;;;;;24.08;4.50;;;17.10;99.90;;;;;;5096165;28;19920;-70
2023/06/02 09:52:15;;;;;;;24.23;3.75;;;16.90;99.90;;;;;;5095578;28;20385;-70
2023/06/02 09:54:43;;;;;;;21.83;3.60;;;17.00;99.90;;;;;;5095030;28;20051;-71
2023/06/02 09:57:13;;;;;;;23.77;3.88;;;17.20;99.90;;;;;;5096951;28;20048;-71
2023/06/02 09:59:43;;;;;;;23.73;4.40;;;17.30;99.90;;;;;;5096200;28;20048;-71
2023/06/02 10:02:10;;;;;;;15.10;2.90;;;17.30;99.90;;;;;;5095542;28;20040;-70
2023/06/02 10:04:36;;;;;;;19.00;2.90;;;17.70;99.90;;;;;;5096845;28;20050;-71
2023/06/02 10:07:26;;;;;;;16.27;3.33;;;17.80;99.90;;;;;;5078450;28;20402;-70
2023/06/02 10:10:01;;;;;;;17.30;2.88;;;18.00;99.90;;;;;;5096568;28;20044;-71
2023/06/02 10:13:03;;;;;;;14.27;3.00;;;18.30;99.90;;;;;;5095940;28;20040;-70
2023/06/02 10:16:08;;;;;;;19.23;3.08;;;18.70;99.90;;;;;;5094901;28;20062;-70
2023/06/02 10:19:07;;;;;;;17.17;3.28;;;18.70;99.90;;;;;;5096500;28;20094;-73
2023/06/02 10:21:52;;;;;;;23.70;2.63;;;18.40;99.90;;;;;;5095286;28;20087;-73
2023/06/02 10:24:54;;;;;;;11.15;1.80;;;18.90;99.90;;;;;;5094695;28;20047;-70
2023/06/02 10:27:32;;;;;;;13.75;2.20;;;19.30;99.90;;;;;;5096130;28;20389;-70
2023/06/02 10:29:58;;;;;;;17.70;2.17;;;19.50;99.90;;;;;;5095695;28;20043;-70
2023/06/02 10:32:27;;;;;;;12.77;1.75;;;19.80;99.90;;;;;;5077502;28;20032;-72
2023/06/02 10:34:56;;;;;;;9.98;1.70;;;19.80;99.90;;;;;;5095536;28;20043;-72
2023/06/02 10:37:23;;;;;;;11.40;1.65;;;19.70;99.90;;;;;;5095466;28;20059;-71
2023/06/02 10:39:58;;;;;;;15.75;1.73;;;19.60;99.90;;;;;;5095403;28;20121;-71
2023/06/02 10:42:25;;;;;;;14.27;2.35;;;19.00;99.90;;;;;;5095252;28;20063;-69
2023/06/02 10:44:53;;;;;;;11.35;1.95;;;19.10;99.90;;;;;;5095239;28;20528;-71
2023/06/02 10:47:19;;;;;;;10.65;1.63;;;18.80;99.90;;;;;;5094271;28;20164;-71
2023/06/02 10:50:09;;;;;;;9.27;1.40;;;19.10;99.90;;;;;;5094322;28;20056;-70
2023/06/02 10:53:00;;;;;;;8.75;1.25;;;19.20;99.90;;;;;;5094254;28;20047;-72
2023/06/02 10:55:30;;;;;;;10.80;1.38;;;19.50;99.90;;;;;;5094071;28;20528;-70
2023/06/02 10:58:03;;;;;;;7.28;1.02;;;19.60;99.90;;;;;;5094996;28;20449;-73
2023/06/02 11:00:32;;;;;;;10.98;1.75;;;20.10;99.90;;;;;;5077506;28;20442;-71
2023/06/02 11:03:20;;;;;;;11.15;1.17;;;20.20;99.80;;;;;;5093961;28;20052;-71
2023/06/02 11:05:47;;;;;;;10.68;1.42;;;20.50;99.00;;;;;;5083947;28;20054;-71
2023/06/02 11:08:14;;;;;;;;;;;20.80;99.80;;;;;;5095250;28;20051;-71
2023/06/02 11:10:47;;;;;;;8.35;1.15;;;21.00;99.20;;;;;;5077303;28;19926;-70
2023/06/02 11:13:14;;;;;;;9.05;1.15;;;20.90;96.60;;;;;;5094275;28;20093;-69
2023/06/02 11:16:01;;;;;;;8.05;1.55;;;20.20;96.20;;;;;;5094803;28;20048;-69
2023/06/02 11:18:32;;;;;;;8.45;1.27;;;20.50;96.10;;;;;;5073467;28;20113;-70
2023/06/02 11:21:02;;;;;;;8.65;1.00;;;20.40;96.50;;;;;;5093826;28;20040;-74
2023/06/02 11:23:28;;;;;;;5.70;1.17;;;20.10;96.00;;;;;;5094708;28;20100;-71
2023/06/02 11:26:00;;;;;;;6.50;0.97;;;19.80;96.20;;;;;;5093609;28;20047;-72
2023/06/02 11:28:27;;;;;;;6.75;1.35;;;19.70;95.70;;;;;;5094266;28;20044;-72
2023/06/02 11:31:13;;;;;;;7.05;1.30;;;19.50;95.70;;;;;;5095034;28;20113;-71
2023/06/02 11:33:41;;;;;;;8.80;1.17;;;19.50;96.20;;;;;;5094480;28;20078;-72
2023/06/02 11:36:14;;;;;;;10.38;1.60;;;19.50;96.40;;;;;;5094422;28;20102;-71
2023/06/02 11:38:41;;;;;;;5.43;0.95;;;19.70;95.80;;;;;;5093676;28;20159;-73
2023/06/02 11:41:21;;;;;;;6.63;1.02;;;19.50;95.80;;;;;;5059720;28;20052;-72
2023/06/02 11:43:50;;;;;;;12.05;1.25;;;19.60;95.70;;;;;;5094923;28;20058;-70
2023/06/02 11:46:18;;;;;;;7.10;1.08;;;19.10;95.90;;;;;;5076817;28;20044;-73
2023/06/02 11:48:45;;;;;;;7.68;0.90;;;19.30;96.50;;;;;;5076847;28;20095;-71
2023/06/02 11:51:11;;;;;;;;;;;19.50;96.70;;;;;;5076673;28;20230;-74
2023/06/02 11:53:48;;;;;;;;;;;19.60;95.50;;;;;;5094656;28;20027;-72
2023/06/02 11:56:16;;;;;;;5.82;0.98;;;19.60;95.60;;;;;;5094527;28;19920;-71
2023/06/02 11:58:42;;;;;;;6.20;0.95;;;19.90;96.40;;;;;;5076256;28;20063;-70
2023/06/02 12:01:12;;;;;;;5.03;0.88;;;19.50;94.40;;;;;;5076054;28;20059;-72
2023/06/02 12:03:38;;;;;;;8.23;0.85;;;19.70;95.60;;;;;;5092684;28;20044;-71
2023/06/02 12:06:16;;;;;;;6.30;0.93;;;19.90;94.80;;;;;;5094521;28;20050;-71
2023/06/02 12:08:42;;;;;;;5.88;1.00;;;20.10;95.00;;;;;;5094666;28;20083;-71
2023/06/02 12:11:18;;;;;;;7.83;1.03;;;20.10;94.40;;;;;;5093819;28;20493;-70
2023/06/02 12:14:04;;;;;;;3.33;0.80;;;20.30;94.40;;;;;;5093855;28;20039;-68
2023/06/02 12:16:30;;;;;;;4.68;1.52;;;20.00;94.50;;;;;;5092176;28;20056;-71
2023/06/02 12:19:21;;;;;;;5.65;1.00;;;20.10;93.30;;;;;;5093714;28;20048;-70
2023/06/02 12:21:50;;;;;;;7.07;1.02;;;19.80;93.60;;;;;;5092635;28;20102;-70
2023/06/02 12:24:37;;;;;;;7.88;1.20;;;19.80;94.20;;;;;;5092588;28;20040;-71
2023/06/02 12:27:04;;;;;;;5.72;0.93;;;19.90;94.20;;;;;;5077341;28;20125;-70
2023/06/02 12:29:30;;;;;;;5.07;0.70;;;19.80;93.50;;;;;;5093653;28;20048;-70
2023/06/02 12:32:01;;;;;;;3.17;0.70;;;19.60;94.10;;;;;;5092293;28;20040;-70
2023/06/02 12:34:27;;;;;;;5.22;0.85;;;19.70;93.50;;;;;;5093248;28;20040;-70
2023/06/02 12:36:53;;;;;;;5.03;0.80;;;19.80;93.30;;;;;;5092010;28;20044;-73
2023/06/02 12:39:19;;;;;;;9.47;0.80;;;19.90;92.50;;;;;;5094238;28;20097;-76
2023/06/02 12:41:45;;;;;;;7.75;0.70;;;20.20;92.50;;;;;;5075669;28;20047;-71
2023/06/02 12:44:10;;;;;;;3.37;0.83;;;20.30;92.10;;;;;;5093487;28;20489;-71
2023/06/02 12:46:36;;;;;;;3.27;0.77;;;20.50;92.70;;;;;;5092293;28;20067;-72